Time;durP1;ratioP1;P1;durP2;ratioP2;P2;SDS_P1;SDS_P2;PMS_P1;PMS_P2;Temp;Humidity;BMP_temperature;BMP_pressure;BME280_temperature;BME280_humidity;BME280_pressure;Samples;Min_cycle;Max_cycle;Signal;HPM_P1;HPM_P2
2022/05/14 00:01:19;;;;;;;8.10;3.30;;;;;;;17.83;45.65;99218.41;232701;1223;138808;-65
2022/05/14 00:06:25;;;;;;;5.20;2.90;;;;;;;17.79;45.83;99217.52;232786;1223;138706;-63
2022/05/14 00:16:50;;;;;;;5.50;2.60;;;;;;;17.74;45.80;99220.48;232962;1222;139125;-62
2022/05/14 00:21:53;;;;;;;6.80;3.10;;;;;;;17.68;45.62;99221.84;232823;1223;139534;-60
2022/05/14 00:26:56;;;;;;;6.40;3.00;;;;;;;17.65;45.68;99231.60;232793;1223;138633;-61
2022/05/14 00:31:59;;;;;;;6.40;3.40;;;;;;;17.59;45.60;99225.17;232454;1223;138529;-61
2022/05/14 00:37:03;;;;;;;4.90;2.70;;;;;;;17.59;45.60;99235.58;232731;1223;138841;-60
2022/05/14 00:42:06;;;;;;;7.20;2.70;;;;;;;17.55;45.62;99236.83;232833;1223;138703;-60
2022/05/14 00:47:12;;;;;;;6.50;3.10;;;;;;;17.53;45.63;99237.92;232635;1223;139186;-60
2022/05/14 00:52:18;;;;;;;4.70;2.80;;;;;;;17.48;45.63;99236.06;232613;1224;138642;-60
2022/05/14 00:57:25;;;;;;;11.00;2.90;;;;;;;17.45;45.77;99241.67;232894;1221;139751;-62
2022/05/14 01:02:28;;;;;;;6.70;3.20;;;;;;;17.38;45.63;99238.00;232889;1223;139651;-64
2022/05/14 01:07:33;;;;;;;11.70;3.40;;;;;;;17.33;45.64;99237.54;232390;1222;139219;-63
2022/05/14 01:12:40;;;;;;;6.40;2.90;;;;;;;17.29;45.69;99243.81;233048;1222;139355;-63
2022/05/14 01:17:44;;;;;;;5.90;3.20;;;;;;;17.21;46.06;99237.64;232247;1223;139402;-65
2022/05/14 01:23:15;;;;;;;8.50;2.90;;;;;;;17.09;45.99;99241.76;232292;1224;139106;-62
2022/05/14 01:28:20;;;;;;;7.20;2.80;;;;;;;17.01;46.25;99237.53;232900;1221;138643;-63
2022/05/14 01:33:24;;;;;;;7.20;2.80;;;;;;;16.96;46.18;99243.39;232643;1223;138774;-63
2022/05/14 01:38:27;;;;;;;7.20;3.20;;;;;;;16.88;46.33;99244.26;232536;1223;138604;-63
2022/05/14 01:43:32;;;;;;;7.00;3.20;;;;;;;16.80;46.60;99239.73;232829;1222;139278;-61
2022/05/14 01:48:35;;;;;;;8.20;3.00;;;;;;;16.73;46.73;99242.02;232680;1223;141781;-62
2022/05/14 01:53:38;;;;;;;7.20;3.10;;;;;;;16.61;46.97;99242.05;232748;1223;138550;-61
2022/05/14 01:58:42;;;;;;;9.90;3.60;;;;;;;16.51;47.39;99245.69;232618;1222;138801;-65
2022/05/14 02:03:56;;;;;;;6.60;3.50;;;;;;;16.44;47.40;99240.90;232614;1221;138770;-66
2022/05/14 02:09:00;;;;;;;8.50;3.90;;;;;;;16.41;47.55;99240.42;232432;1224;139851;-66
2022/05/14 02:14:04;;;;;;;8.80;4.00;;;;;;;16.40;47.56;99239.83;232722;1222;138736;-64
2022/05/14 02:19:07;;;;;;;6.60;3.80;;;;;;;16.34;47.83;99231.77;232866;1222;138692;-62
2022/05/14 02:24:10;;;;;;;8.80;4.20;;;;;;;16.28;47.75;99230.90;232789;1222;138382;-61
2022/05/14 02:29:13;;;;;;;10.20;4.20;;;;;;;16.23;47.84;99230.81;232858;1223;138864;-61
2022/05/14 02:34:17;;;;;;;9.80;4.00;;;;;;;16.18;47.97;99230.51;232575;1223;138986;-60
2022/05/14 02:39:20;;;;;;;14.50;4.00;;;;;;;16.11;48.22;99233.80;232646;1223;139191;-63
2022/05/14 02:44:23;;;;;;;9.30;4.80;;;;;;;16.02;48.36;99231.48;232636;1223;139481;-63
2022/05/14 02:49:26;;;;;;;12.80;4.30;;;;;;;15.95;48.23;99232.02;232425;1222;138899;-68
2022/05/14 02:54:29;;;;;;;6.90;4.00;;;;;;;15.89;48.44;99235.58;232684;1222;139337;-66
2022/05/14 02:59:33;;;;;;;9.40;4.80;;;;;;;15.80;48.62;99232.35;232816;1223;138402;-65
2022/05/14 03:04:39;;;;;;;11.80;4.90;;;;;;;15.72;48.90;99229.25;232059;1223;139077;-63
2022/05/14 03:09:42;;;;;;;;;;;;;;;15.64;49.06;99233.95;232568;1223;139965;-63
2022/05/14 03:14:45;;;;;;;5.70;4.10;;;;;;;15.56;49.13;99234.94;232741;1221;125437;-63
2022/05/14 03:19:49;;;;;;;41.60;32.20;;;;;;;15.55;49.22;99238.08;232598;1224;138524;-63
2022/05/14 03:24:53;;;;;;;10.40;5.30;;;;;;;15.98;51.22;99233.26;232479;1223;139241;-61
2022/05/14 03:29:57;;;;;;;9.00;4.80;;;;;;;16.50;49.74;99239.73;232615;1223;139195;-62
2022/05/14 03:35:02;;;;;;;11.20;5.00;;;;;;;16.32;48.65;99246.54;232753;1222;140249;-63
2022/05/14 03:40:07;;;;;;;23.30;15.60;;;;;;;16.16;48.67;99248.45;232689;1223;139532;-64
2022/05/14 03:45:11;;;;;;;11.40;5.00;;;;;;;16.03;48.61;99248.92;232677;1223;140615;-65
2022/05/14 03:50:15;;;;;;;13.60;5.20;;;;;;;15.88;48.67;99253.73;231724;1222;140621;-63
2022/05/14 03:55:19;;;;;;;6.50;4.20;;;;;;;15.72;48.55;99258.21;232443;1221;139397;-64
2022/05/14 04:00:22;;;;;;;10.70;4.20;;;;;;;15.59;48.99;99254.42;232430;1222;138961;-65
2022/05/14 04:05:27;;;;;;;43.20;32.70;;;;;;;15.46;49.15;99255.27;232793;1221;140404;-65
2022/05/14 04:10:30;;;;;;;9.50;5.60;;;;;;;15.47;49.57;99264.15;232705;1222;139307;-65
2022/05/14 04:15:34;;;;;;;24.30;18.30;;;;;;;15.47;49.47;99269.54;232538;1223;139327;-65
2022/05/14 04:20:37;;;;;;;12.10;5.70;;;;;;;15.47;49.61;99263.42;232608;1223;139512;-65
2022/05/14 04:25:40;;;;;;;9.50;4.80;;;;;;;15.42;49.41;99265.59;232575;1223;139670;-65
2022/05/14 04:30:44;;;;;;;11.70;5.10;;;;;;;15.38;49.76;99279.82;232526;1223;139440;-63
2022/05/14 04:35:48;;;;;;;7.70;4.90;;;;;;;15.34;49.48;99283.01;232546;1223;139113;-62
2022/05/14 04:40:51;;;;;;;10.30;5.40;;;;;;;15.32;49.27;99288.88;232678;1223;138660;-62
2022/05/14 04:45:55;;;;;;;11.80;5.70;;;;;;;15.31;49.54;99287.85;232507;1223;139396;-62
2022/05/14 04:50:58;;;;;;;13.30;5.40;;;;;;;15.38;49.53;99293.61;232535;1223;139808;-63
2022/05/14 04:56:01;;;;;;;13.40;5.30;;;;;;;15.46;49.48;99301.27;232405;1224;139073;-61
2022/05/14 05:01:04;;;;;;;12.70;5.40;;;;;;;15.56;49.41;99306.30;232366;1224;139177;-61
2022/05/14 05:06:13;;;;;;;13.30;5.40;;;;;;;15.66;49.26;99306.13;232472;1224;139105;-59
2022/05/14 05:11:22;;;;;;;14.50;5.10;;;;;;;15.70;49.31;99307.95;232556;1224;140569;-61
2022/05/14 05:16:25;;;;;;;14.10;5.60;;;;;;;15.76;48.97;99307.64;232766;1223;139906;-59
2022/05/14 05:21:31;;;;;;;12.40;5.00;;;;;;;15.87;49.20;99314.45;231853;1223;139401;-61
2022/05/14 05:26:35;;;;;;;13.30;4.80;;;;;;;16.01;49.10;99313.04;232210;1224;140105;-61
2022/05/14 05:31:39;;;;;;;8.30;4.60;;;;;;;16.14;48.70;99308.21;232471;1222;139883;-59
2022/05/14 05:36:42;;;;;;;7.80;3.80;;;;;;;16.29;48.60;99309.07;232376;1223;139198;-63
2022/05/14 05:41:45;;;;;;;10.60;4.20;;;;;;;16.45;48.20;99306.19;232653;1222;138693;-62
2022/05/14 05:46:48;;;;;;;9.10;3.90;;;;;;;16.58;48.05;99304.09;232676;1223;140003;-63
2022/05/14 05:51:51;;;;;;;8.00;3.20;;;;;;;16.68;47.79;99305.00;232450;1222;141133;-63
2022/05/14 05:56:57;;;;;;;9.80;3.00;;;;;;;16.77;47.42;99303.59;232604;1224;138530;-62
2022/05/14 06:02:00;;;;;;;8.70;2.90;;;;;;;16.84;47.46;99300.84;232789;1222;138953;-63
2022/05/14 06:07:04;;;;;;;8.30;3.30;;;;;;;16.96;47.21;99304.30;232341;1224;139041;-64
2022/05/14 06:12:07;;;;;;;8.80;3.10;;;;;;;17.09;47.21;99301.82;232564;1223;139052;-63
2022/05/14 06:17:11;;;;;;;6.70;2.90;;;;;;;17.20;46.83;99296.34;232445;1223;139198;-63
2022/05/14 06:22:14;;;;;;;11.80;2.70;;;;;;;17.27;46.59;99293.45;232676;1222;138761;-61
2022/05/14 06:27:18;;;;;;;6.70;2.70;;;;;;;17.31;46.40;99292.06;232362;1224;138982;-61
2022/05/14 06:32:21;;;;;;;6.90;3.00;;;;;;;17.48;46.42;99297.95;232661;1224;139573;-63
2022/05/14 06:37:24;;;;;;;7.70;2.50;;;;;;;17.66;46.05;99293.50;232462;1224;139553;-64
2022/05/14 06:42:27;;;;;;;6.80;2.60;;;;;;;17.82;45.75;99290.65;232633;1222;139081;-65
2022/05/14 06:47:30;;;;;;;6.60;2.50;;;;;;;17.89;45.22;99278.96;232667;1223;139020;-60
2022/05/14 06:52:35;;;;;;;9.60;2.60;;;;;;;18.08;45.48;99274.76;232686;1223;138486;-61
2022/05/14 06:57:38;;;;;;;10.60;3.10;;;;;;;18.16;44.71;99271.23;232306;1224;139559;-66
2022/05/14 07:02:43;;;;;;;6.90;2.80;;;;;;;18.19;44.44;99261.83;232458;1224;140227;-68
2022/05/14 07:07:46;;;;;;;6.40;3.00;;;;;;;18.24;44.34;99260.92;232517;1222;138757;-67
2022/05/14 07:12:49;;;;;;;5.80;2.30;;;;;;;18.30;44.31;99257.31;232450;1224;138847;-68
2022/05/14 07:17:53;;;;;;;8.90;2.60;;;;;;;18.44;44.38;99267.84;232577;1223;138926;-69
2022/05/14 07:22:56;;;;;;;7.50;2.00;;;;;;;18.59;43.98;99268.45;232663;1224;138528;-69
2022/05/14 07:27:59;;;;;;;6.60;2.50;;;;;;;18.75;43.89;99272.56;232349;1223;139253;-63
2022/05/14 07:33:02;;;;;;;7.00;2.60;;;;;;;18.82;43.47;99281.09;232633;1224;139142;-61
2022/05/14 07:38:06;;;;;;;8.90;2.60;;;;;;;18.83;43.36;99278.69;232840;1224;138927;-66
2022/05/14 07:43:18;;;;;;;6.60;2.60;;;;;;;18.84;43.05;99279.03;232884;1222;139665;-69
2022/05/14 07:48:26;;;;;;;5.30;2.00;;;;;;;18.86;43.13;99280.05;232829;1222;139387;-67
2022/05/14 07:53:30;;;;;;;7.90;2.50;;;;;;;18.96;43.06;99272.09;232765;1223;139569;-64
2022/05/14 07:58:33;;;;;;;6.90;2.20;;;;;;;18.97;42.71;99275.47;232676;1222;139751;-59
2022/05/14 08:03:37;;;;;;;5.70;1.90;;;;;;;19.00;42.68;99275.52;232580;1224;138691;-61
2022/05/14 08:08:40;;;;;;;4.90;2.00;;;;;;;19.07;42.36;99280.79;232572;1224;138643;-62
2022/05/14 08:13:43;;;;;;;7.70;2.40;;;;;;;19.22;42.43;99280.98;232697;1222;139725;-63
2022/05/14 08:18:46;;;;;;;7.30;2.80;;;;;;;19.31;42.24;99276.71;232628;1222;139893;-62
2022/05/14 08:29:11;;;;;;;6.60;2.10;;;;;;;19.43;41.64;99263.21;232851;1223;139663;-63
2022/05/14 08:34:14;;;;;;;8.60;2.60;;;;;;;19.46;41.72;99259.59;232322;1224;139490;-61
2022/05/14 08:39:17;;;;;;;8.20;2.90;;;;;;;19.52;41.68;99268.45;232587;1224;138685;-60
2022/05/14 08:44:26;;;;;;;7.50;3.10;;;;;;;19.54;41.15;99261.73;232661;1224;141910;-63
2022/05/14 08:49:38;;;;;;;7.20;2.50;;;;;;;19.53;41.07;99257.88;232614;1224;138890;-60
2022/05/14 08:54:42;;;;;;;5.30;2.00;;;;;;;19.57;40.66;99253.39;232623;1224;139098;-62
2022/05/14 08:59:57;;;;;;;6.70;2.00;;;;;;;19.64;40.65;99248.05;232734;1224;139158;-62
2022/05/14 09:05:11;;;;;;;4.50;1.90;;;;;;;19.59;40.37;99243.08;232580;1224;139018;-63
2022/05/14 09:10:23;;;;;;;7.00;2.60;;;;;;;19.66;40.35;99235.86;232156;1224;140099;-63
2022/05/14 09:15:31;;;;;;;4.50;1.90;;;;;;;19.74;40.72;99239.55;232345;1224;139135;-66
2022/05/14 09:20:46;;;;;;;6.80;2.10;;;;;;;19.83;40.62;99233.27;232444;1224;139038;-68
2022/05/14 09:25:49;;;;;;;7.10;2.10;;;;;;;19.91;40.28;99223.31;232483;1223;139672;-67
2022/05/14 09:30:55;;;;;;;7.20;2.40;;;;;;;19.82;40.00;99222.55;232360;1224;139212;-67
2022/05/14 09:36:01;;;;;;;7.80;2.40;;;;;;;19.77;40.00;99221.43;232409;1223;139600;-70
2022/05/14 09:41:09;;;;;;;6.20;2.80;;;;;;;19.83;40.13;99225.70;232786;1223;138393;-67
2022/05/14 09:46:26;;;;;;;8.20;2.90;;;;;;;19.78;40.18;99230.48;232737;1224;138979;-69
2022/05/14 09:51:46;;;;;;;6.70;3.00;;;;;;;19.85;40.13;99215.09;232544;1221;138728;-65
2022/05/14 09:57:31;;;;;;;5.70;2.30;;;;;;;19.84;40.17;99216.60;232792;1223;138845;-64
2022/05/14 10:02:51;;;;;;;7.10;2.40;;;;;;;19.96;40.27;99206.38;232721;1222;138999;-64
2022/05/14 10:08:12;;;;;;;8.30;2.30;;;;;;;20.00;39.76;99208.19;232899;1222;138939;-64
2022/05/14 10:13:52;;;;;;;8.40;2.30;;;;;;;20.03;39.50;99209.10;232772;1223;139917;-63
2022/05/14 10:19:22;;;;;;;88.40;67.10;;;;;;;19.99;39.27;99212.81;232256;1223;139644;-63
2022/05/14 10:30:25;;;;;;;9.70;2.50;;;;;;;20.03;39.59;99199.60;232649;1223;138775;-64
2022/05/14 10:35:35;;;;;;;7.30;2.10;;;;;;;20.06;39.30;99193.19;232948;1223;139888;-65
2022/05/14 10:40:40;;;;;;;4.90;1.80;;;;;;;20.08;39.02;99202.38;232542;1223;139778;-64
2022/05/14 10:45:49;;;;;;;9.40;1.90;;;;;;;20.17;39.22;99199.65;232650;1223;139215;-64
2022/05/14 10:50:59;;;;;;;4.90;1.80;;;;;;;20.40;39.02;99189.59;232465;1223;139490;-64
2022/05/14 10:56:32;;;;;;;7.80;1.70;;;;;;;20.65;38.80;99178.32;232643;1223;139086;-65
2022/05/14 11:01:41;;;;;;;89.20;63.80;;;;;;;20.62;38.36;99178.80;232779;1223;139161;-64
2022/05/14 11:06:48;;;;;;;7.20;3.30;;;;;;;20.71;38.48;99176.52;232565;1223;139576;-62
2022/05/14 11:11:56;;;;;;;9.00;2.50;;;;;;;20.90;38.22;99174.84;232491;1223;139220;-62
2022/05/14 11:16:59;;;;;;;9.30;2.80;;;;;;;21.08;37.75;99178.02;232821;1222;138509;-63
2022/05/14 11:22:02;;;;;;;5.30;2.30;;;;;;;21.01;37.46;99166.26;232722;1223;138801;-64
2022/05/14 11:27:06;;;;;;;7.90;1.80;;;;;;;20.89;37.38;99168.09;232735;1223;139689;-62
2022/05/14 11:32:13;;;;;;;7.70;1.90;;;;;;;20.99;37.62;99164.35;232446;1222;139064;-61
2022/05/14 11:37:28;;;;;;;10.40;1.60;;;;;;;20.98;37.13;99164.78;232632;1223;139958;-63
2022/05/14 11:42:32;;;;;;;6.80;2.30;;;;;;;21.11;37.32;99157.85;232682;1223;138584;-62
2022/05/14 11:48:07;;;;;;;5.50;1.70;;;;;;;21.35;37.15;99153.23;232787;1224;139173;-62
2022/05/14 11:53:18;;;;;;;7.30;2.60;;;;;;;21.39;36.66;99144.85;232620;1223;138945;-62
2022/05/14 11:58:53;;;;;;;5.50;1.90;;;;;;;21.39;36.47;99160.73;232587;1223;138970;-63
2022/05/14 12:04:00;;;;;;;5.50;1.70;;;;;;;21.67;36.47;99152.50;232641;1222;138669;-63
2022/05/14 12:09:46;;;;;;;7.00;1.80;;;;;;;21.82;36.24;99149.61;232493;1223;140337;-63
2022/05/14 12:14:50;;;;;;;6.60;1.90;;;;;;;21.80;35.82;99143.54;232351;1223;139650;-64
2022/05/14 12:19:56;;;;;;;5.40;1.60;;;;;;;21.87;35.61;99145.63;232367;1223;138719;-63
2022/05/14 12:25:03;;;;;;;6.00;1.60;;;;;;;22.08;35.50;99136.70;232242;1223;141369;-63
2022/05/14 12:30:12;;;;;;;5.80;1.90;;;;;;;22.19;35.30;99139.52;232562;1223;140179;-64
2022/05/14 12:35:23;;;;;;;4.80;1.50;;;;;;;22.20;34.95;99136.55;232782;1222;138863;-62
2022/05/14 12:40:31;;;;;;;5.90;1.60;;;;;;;22.31;34.95;99128.97;232576;1223;139055;-63
2022/05/14 12:45:39;;;;;;;7.70;2.50;;;;;;;22.36;34.81;99127.76;232513;1223;138655;-63
2022/05/14 12:50:57;;;;;;;14.60;6.10;;;;;;;22.35;34.65;99129.85;232607;1223;138963;-63
2022/05/14 12:56:01;;;;;;;15.40;6.20;;;;;;;22.28;34.39;99130.60;232856;1223;139396;-63
2022/05/14 13:01:05;;;;;;;27.20;17.80;;;;;;;22.39;34.40;99122.41;233177;1222;140331;-62
2022/05/14 13:06:23;;;;;;;9.10;2.70;;;;;;;22.29;34.11;99127.05;231970;1223;139516;-60
2022/05/14 13:11:30;;;;;;;7.70;1.90;;;;;;;22.29;34.06;99126.39;233236;1223;138581;-61
2022/05/14 13:16:33;;;;;;;12.30;1.70;;;;;;;22.34;33.84;99122.36;233080;1223;138918;-62
2022/05/14 13:21:48;;;;;;;9.30;3.00;;;;;;;22.33;33.80;99117.59;233127;1222;233337;-63
2022/05/14 13:26:52;;;;;;;;;;;;;;;22.20;33.59;99113.73;233230;1223;138673;-59
2022/05/14 13:32:09;;;;;;;4.60;1.70;;;;;;;22.01;33.74;99111.00;233218;1222;125340;-59
2022/05/14 13:37:22;;;;;;;5.60;1.60;;;;;;;22.41;34.25;99108.77;232627;1222;139318;-59
2022/05/14 13:42:32;;;;;;;8.40;2.00;;;;;;;22.87;33.96;99097.14;232767;1223;140320;-59
2022/05/14 13:47:35;;;;;;;6.50;2.10;;;;;;;23.06;33.44;99095.23;233055;1223;139206;-60
2022/05/14 13:52:49;;;;;;;5.60;2.00;;;;;;;23.42;33.44;99094.84;233152;1224;138501;-60
2022/05/14 13:57:56;;;;;;;8.80;1.50;;;;;;;23.58;32.84;99085.13;233151;1223;138668;-60
2022/05/14 14:03:05;;;;;;;5.60;1.70;;;;;;;23.36;32.46;99094.65;233193;1223;139141;-60
2022/05/14 14:08:08;;;;;;;4.40;1.90;;;;;;;23.05;32.44;99093.83;233123;1223;138858;-59
2022/05/14 14:13:12;;;;;;;4.90;1.80;;;;;;;22.85;32.80;99088.60;233010;1223;139303;-61
2022/05/14 14:18:15;;;;;;;8.30;2.10;;;;;;;22.75;32.89;99084.71;233261;1223;138825;-62
2022/05/14 14:23:25;;;;;;;7.90;2.20;;;;;;;23.03;33.25;99089.98;233328;1223;138798;-62
2022/05/14 14:28:29;;;;;;;7.20;1.80;;;;;;;23.21;33.03;99078.83;233195;1223;139054;-61
2022/05/14 14:33:35;;;;;;;6.00;2.40;;;;;;;23.22;32.73;99081.95;232845;1223;139919;-62
2022/05/14 14:38:38;;;;;;;11.30;3.50;;;;;;;23.29;32.68;99084.77;232440;1223;139104;-63
2022/05/14 14:43:41;;;;;;;17.60;12.00;;;;;;;23.28;32.44;99079.48;232572;1222;138950;-63
2022/05/14 14:48:48;;;;;;;6.20;2.20;;;;;;;23.35;32.26;99089.91;232646;1223;139740;-62
2022/05/14 14:53:52;;;;;;;9.00;1.90;;;;;;;23.31;32.15;99087.20;232128;1222;138997;-62
2022/05/14 14:58:55;;;;;;;29.30;18.50;;;;;;;23.26;32.00;99079.14;232625;1222;138987;-62
2022/05/14 15:04:07;;;;;;;5.00;2.30;;;;;;;23.25;31.88;99082.68;232441;1222;139103;-63
2022/05/14 15:09:10;;;;;;;6.40;2.30;;;;;;;23.24;32.09;99080.95;232575;1223;141166;-62
2022/05/14 15:14:17;;;;;;;38.30;30.50;;;;;;;23.25;32.08;99079.38;232582;1223;138873;-64
2022/05/14 15:19:21;;;;;;;5.60;2.20;;;;;;;23.22;31.82;99081.56;232606;1222;139203;-64
2022/05/14 15:24:30;;;;;;;5.30;1.80;;;;;;;23.17;31.64;99079.86;232451;1223;138947;-63
2022/05/14 15:29:33;;;;;;;7.60;2.20;;;;;;;23.07;31.53;99073.57;232591;1223;138536;-63
2022/05/14 15:34:36;;;;;;;6.80;2.00;;;;;;;22.98;31.43;99070.19;232739;1222;140008;-60
2022/05/14 15:39:40;;;;;;;8.00;2.00;;;;;;;22.94;31.45;99074.83;232539;1223;139443;-62
2022/05/14 15:44:51;;;;;;;7.20;2.10;;;;;;;22.88;31.44;99072.91;231593;1221;139027;-62
2022/05/14 15:50:04;;;;;;;5.50;1.80;;;;;;;22.76;31.34;99070.68;232472;1221;139004;-62
2022/05/14 15:55:16;;;;;;;10.20;2.60;;;;;;;22.66;31.65;99075.27;232600;1223;139610;-64
2022/05/14 16:00:21;;;;;;;16.00;7.90;;;;;;;22.56;31.76;99070.05;232824;1222;139471;-62
2022/05/14 16:05:25;;;;;;;;;;;;;;;22.51;31.81;99066.26;232773;1222;138776;-63
2022/05/14 16:15:53;;;;;;;9.40;2.40;;;;;;;22.48;32.09;99061.41;232471;1223;140483;-60
2022/05/14 16:20:57;;;;;;;5.80;2.70;;;;;;;22.45;32.18;99065.63;232458;1222;139376;-62
2022/05/14 16:26:01;;;;;;;336.50;258.50;;;;;;;22.41;32.17;99062.57;232376;1223;138847;-61
2022/05/14 16:31:04;;;;;;;24.20;14.10;;;;;;;22.41;32.32;99064.42;232475;1223;139540;-63
2022/05/14 16:36:07;;;;;;;6.50;3.00;;;;;;;22.37;32.51;99057.31;232371;1222;139319;-66
2022/05/14 16:41:11;;;;;;;7.10;3.20;;;;;;;22.35;32.47;99058.77;232648;1222;142483;-55
2022/05/14 16:46:14;;;;;;;6.00;3.20;;;;;;;22.32;32.69;99059.83;232618;1222;138944;-59
2022/05/14 16:51:17;;;;;;;13.90;8.40;;;;;;;22.32;32.69;99069.08;232378;1223;139479;-66
2022/05/14 16:56:23;;;;;;;71.40;58.70;;;;;;;22.27;32.79;99067.98;232542;1222;139313;-59
2022/05/14 17:01:26;;;;;;;8.50;5.00;;;;;;;22.23;32.79;99065.56;232602;1222;139830;-64
2022/05/14 17:06:29;;;;;;;17.60;8.00;;;;;;;22.22;32.86;99076.91;232643;1223;138670;-64
2022/05/14 17:11:35;;;;;;;8.80;4.90;;;;;;;22.22;33.25;99078.27;232724;1224;139851;-64
2022/05/14 17:16:39;;;;;;;13.60;8.70;;;;;;;22.19;33.59;99078.42;231665;1222;138741;-64
2022/05/14 17:21:43;;;;;;;9.60;3.30;;;;;;;22.13;33.64;99081.43;232539;1222;138970;-64
2022/05/14 17:26:46;;;;;;;19.60;12.40;;;;;;;22.09;33.68;99087.16;232450;1222;139055;-64
2022/05/14 17:31:49;;;;;;;10.00;5.10;;;;;;;22.11;34.29;99087.48;232639;1222;139362;-63
2022/05/14 17:42:17;;;;;;;6.50;3.30;;;;;;;21.93;34.54;99088.29;232452;1223;139122;-64
2022/05/14 17:47:20;;;;;;;8.00;2.80;;;;;;;21.78;34.79;99088.73;232545;1224;139053;-63
2022/05/14 17:52:24;;;;;;;7.00;3.40;;;;;;;21.65;35.13;99097.67;232420;1223;138794;-63
2022/05/14 17:57:27;;;;;;;6.20;3.70;;;;;;;21.60;35.50;99102.05;232439;1223;138736;-64
2022/05/14 18:02:31;;;;;;;10.90;3.30;;;;;;;21.55;35.83;99099.80;232482;1224;138741;-63
2022/05/14 18:07:34;;;;;;;8.90;3.70;;;;;;;21.49;35.87;99106.41;232560;1224;139412;-64
2022/05/14 18:12:37;;;;;;;9.10;3.70;;;;;;;21.39;36.21;99113.98;232553;1222;140792;-63
2022/05/14 18:17:41;;;;;;;7.80;4.00;;;;;;;21.32;36.46;99117.98;232605;1222;138797;-63
2022/05/14 18:22:47;;;;;;;12.80;3.80;;;;;;;21.22;36.61;99117.33;232965;1224;139001;-65
2022/05/14 18:27:59;;;;;;;10.10;3.80;;;;;;;21.24;36.88;99123.02;232594;1222;139442;-64
2022/05/14 18:33:11;;;;;;;12.90;3.80;;;;;;;21.23;37.08;99130.05;232454;1223;139903;-63
2022/05/14 18:38:17;;;;;;;9.90;3.90;;;;;;;21.25;37.36;99135.20;232491;1223;140385;-65
2022/05/14 18:43:22;;;;;;;12.30;4.10;;;;;;;21.29;37.66;99144.67;232510;1223;139309;-63
2022/05/14 18:48:27;;;;;;;7.30;4.30;;;;;;;21.18;37.37;99149.60;232518;1224;139030;-63
2022/05/14 18:53:30;;;;;;;6.90;4.50;;;;;;;21.02;37.88;99158.06;232587;1223;138640;-64
2022/05/14 18:58:37;;;;;;;12.30;4.70;;;;;;;20.91;38.04;99165.89;232419;1222;139298;-64
2022/05/14 19:03:40;;;;;;;8.40;4.30;;;;;;;20.80;38.21;99162.10;232428;1223;138567;-63
2022/05/14 19:08:43;;;;;;;11.40;4.60;;;;;;;20.62;38.14;99166.87;232379;1224;138460;-63
2022/05/14 19:13:46;;;;;;;8.80;4.20;;;;;;;20.35;38.08;99173.35;232304;1224;139475;-63
2022/05/14 19:18:49;;;;;;;13.60;4.40;;;;;;;20.14;38.32;99180.12;232488;1224;139175;-63
2022/05/14 19:23:55;;;;;;;7.30;4.30;;;;;;;19.97;38.51;99186.14;232472;1224;139445;-64
2022/05/14 19:28:58;;;;;;;11.40;4.80;;;;;;;19.80;38.82;99188.93;231266;1222;139176;-61
2022/05/14 19:34:01;;;;;;;9.40;5.00;;;;;;;19.69;39.01;99193.63;232648;1223;140385;-63
2022/05/14 19:39:04;;;;;;;13.00;4.80;;;;;;;19.61;39.41;99198.71;232381;1223;139276;-64
2022/05/14 19:44:13;;;;;;;13.00;4.90;;;;;;;19.51;39.59;99206.64;232533;1224;140500;-63
2022/05/14 19:49:19;;;;;;;9.00;5.00;;;;;;;19.43;39.67;99208.91;232365;1223;141269;-62
2022/05/14 19:54:21;;;;;;;12.50;5.10;;;;;;;19.31;40.06;99214.84;232783;1222;139075;-63
2022/05/14 19:59:25;;;;;;;10.10;5.10;;;;;;;19.17;40.13;99218.54;232913;1222;139044;-63
2022/05/14 20:04:30;;;;;;;14.20;5.30;;;;;;;19.02;40.45;99213.45;232677;1224;139165;-63
2022/05/14 20:09:34;;;;;;;11.60;5.10;;;;;;;18.86;40.72;99220.04;232602;1222;138934;-63
2022/05/14 20:14:38;;;;;;;12.20;5.50;;;;;;;18.76;41.20;99223.61;231861;1222;138693;-62
2022/05/14 20:25:14;;;;;;;10.70;5.30;;;;;;;18.62;41.73;99218.25;232660;1222;139454;-63
2022/05/14 20:30:17;;;;;;;12.00;5.80;;;;;;;18.58;42.24;99234.91;232485;1223;140564;-62
2022/05/14 20:35:21;;;;;;;13.00;6.00;;;;;;;18.52;42.23;99234.56;232423;1224;139598;-61
2022/05/14 20:40:24;;;;;;;11.70;5.80;;;;;;;18.43;42.37;99229.54;232232;1222;140977;-62
2022/05/14 20:45:27;;;;;;;13.00;5.30;;;;;;;18.41;42.52;99235.61;232529;1223;140163;-63
2022/05/14 20:50:30;;;;;;;18.60;6.20;;;;;;;18.44;42.32;99243.65;232669;1222;139007;-63
2022/05/14 20:55:33;;;;;;;15.70;5.80;;;;;;;18.47;42.47;99241.02;232695;1222;138819;-63
2022/05/14 21:00:36;;;;;;;13.20;5.80;;;;;;;18.49;42.75;99244.07;232805;1222;139353;-63
2022/05/14 21:05:39;;;;;;;13.60;6.80;;;;;;;18.47;42.63;99236.57;232889;1222;139854;-62
2022/05/14 21:10:43;;;;;;;14.40;6.10;;;;;;;18.47;42.64;99236.55;232759;1222;139015;-62
2022/05/14 21:15:46;;;;;;;9.60;5.60;;;;;;;18.51;42.57;99242.31;232537;1222;138939;-63
2022/05/14 21:20:49;;;;;;;17.80;6.90;;;;;;;18.48;43.16;99243.98;232574;1222;139135;-62
2022/05/14 21:25:52;;;;;;;13.20;6.00;;;;;;;18.40;43.39;99245.80;231518;1223;139417;-63
2022/05/14 21:30:55;;;;;;;13.30;6.90;;;;;;;18.31;43.47;99251.82;232519;1224;138988;-62
2022/05/14 21:41:20;;;;;;;16.30;7.50;;;;;;;18.09;44.04;99256.33;232700;1223;139251;-62
2022/05/14 21:46:23;;;;;;;14.30;7.70;;;;;;;18.03;44.36;99253.60;231699;1224;139312;-63
2022/05/14 21:51:26;;;;;;;15.80;8.40;;;;;;;17.98;44.54;99250.63;232467;1224;140551;-62
2022/05/14 21:56:29;;;;;;;20.00;8.60;;;;;;;17.92;44.73;99261.56;232463;1223;140086;-62
2022/05/14 22:01:35;;;;;;;14.60;9.00;;;;;;;17.84;45.16;99268.64;230821;1223;139537;-65
2022/05/14 22:06:38;;;;;;;18.90;8.40;;;;;;;17.75;45.26;99272.03;232363;1224;139338;-63
2022/05/14 22:11:41;;;;;;;18.60;8.50;;;;;;;17.68;45.44;99269.05;232777;1224;139216;-63
2022/05/14 22:16:45;;;;;;;15.20;8.40;;;;;;;17.61;45.55;99271.81;232502;1224;140034;-63
2022/05/14 22:21:50;;;;;;;17.10;8.30;;;;;;;17.57;45.65;99267.75;232441;1224;139014;-63
2022/05/14 22:26:53;;;;;;;18.30;8.50;;;;;;;17.49;45.84;99265.73;232543;1224;139079;-63
2022/05/14 22:31:56;;;;;;;13.90;7.90;;;;;;;17.42;45.89;99271.70;232610;1223;139509;-62
2022/05/14 22:36:59;;;;;;;15.80;7.60;;;;;;;17.37;46.16;99266.22;232606;1224;139430;-63
2022/05/14 22:42:02;;;;;;;18.00;8.40;;;;;;;17.29;46.18;99262.95;232588;1224;139298;-65
2022/05/14 22:47:05;;;;;;;16.00;8.20;;;;;;;17.27;46.68;99266.40;233026;1222;138910;-62
2022/05/14 22:52:09;;;;;;;19.00;8.30;;;;;;;17.21;46.72;99260.09;232881;1222;139043;-62
2022/05/14 22:57:13;;;;;;;16.80;8.20;;;;;;;17.16;46.95;99258.67;232673;1224;139193;-63
2022/05/14 23:02:16;;;;;;;18.50;9.10;;;;;;;17.13;47.33;99259.34;232604;1223;139722;-63
2022/05/14 23:07:20;;;;;;;15.40;8.50;;;;;;;17.09;47.48;99258.77;231447;1223;139260;-62
2022/05/14 23:12:23;;;;;;;20.70;9.20;;;;;;;17.04;47.84;99257.02;232661;1223;139624;-62
2022/05/14 23:17:34;;;;;;;15.40;9.10;;;;;;;16.98;48.05;99250.94;232466;1223;139024;-62
2022/05/14 23:22:39;;;;;;;12.10;8.60;;;;;;;16.92;48.20;99256.04;232886;1224;139043;-60
2022/05/14 23:27:42;;;;;;;219.80;172.50;;;;;;;16.83;48.35;99251.98;232685;1222;140043;-61
2022/05/14 23:32:45;;;;;;;27.70;16.00;;;;;;;16.79;48.56;99255.55;232723;1224;140173;-61
2022/05/14 23:37:48;;;;;;;19.60;10.20;;;;;;;16.75;48.70;99254.04;231880;1221;139034;-59
2022/05/14 23:42:52;;;;;;;15.00;8.60;;;;;;;16.68;48.94;99250.90;232144;1223;139380;-60
2022/05/14 23:47:57;;;;;;;13.70;8.70;;;;;;;16.60;49.16;99251.21;232652;1224;139444;-60
2022/05/14 23:53:00;;;;;;;21.00;9.30;;;;;;;16.54;49.26;99244.95;232912;1224;139184;-63
